createdAt,value
2023-01-27T00:03:52.200Z,-1.12
2023-01-27T00:08:51.633Z,-1.11
2023-01-27T00:13:51.254Z,-1.12
2023-01-27T00:18:50.146Z,-1.12
2023-01-27T00:23:50.271Z,-1.12
2023-01-27T00:28:49.605Z,-1.12
2023-01-27T00:33:50.900Z,-1.13
2023-01-27T00:38:47.311Z,-1.14
2023-01-27T00:43:47.357Z,-1.13
2023-01-27T00:48:46.393Z,-1.14
2023-01-27T00:53:46.624Z,-1.15
2023-01-27T00:58:43.918Z,-1.16
2023-01-27T01:03:43.641Z,-1.15
2023-01-27T01:08:44.079Z,-1.15
2023-01-27T01:13:43.877Z,-1.14
2023-01-27T01:18:42.302Z,-1.15
2023-01-27T01:23:42.635Z,-1.14
2023-01-27T01:28:42.130Z,-1.12
2023-01-27T01:33:41.733Z,-1.11
2023-01-27T01:38:41.445Z,-1.1
2023-01-27T01:43:41.520Z,-1.1
2023-01-27T01:48:40.697Z,-1.09
2023-01-27T01:53:41.903Z,-1.08
2023-01-27T01:58:28.336Z,-1.08
2023-01-27T02:03:28.238Z,-1.07
2023-01-27T02:08:27.788Z,-1.07
2023-01-27T02:13:28.000Z,-1.07
2023-01-27T02:18:25.099Z,-1.07
2023-01-27T02:23:24.762Z,-1.07
2023-01-27T02:28:24.986Z,-1.08
2023-01-27T02:34:17.104Z,-1.07
2023-01-27T02:38:25.667Z,-1.07
2023-01-27T02:43:23.642Z,-1.07
2023-01-27T02:48:22.850Z,-1.05
2023-01-27T02:53:21.956Z,-1.05
2023-01-27T02:58:21.859Z,-1.05
2023-01-27T02:59:43.464Z,-1.04
2023-01-27T03:04:44.675Z,-1.04
2023-01-27T03:09:40.922Z,-1.05
2023-01-27T03:14:40.813Z,-1.01
2023-01-27T03:19:39.895Z,-1.01
2023-01-27T03:24:39.979Z,-0.99
2023-01-27T03:29:37.110Z,-1.01
2023-01-27T03:34:37.045Z,-0.99
2023-01-27T03:39:37.286Z,-0.97
2023-01-27T03:44:37.108Z,-0.96
2023-01-27T03:49:36.676Z,-0.96
2023-01-27T03:54:36.081Z,-0.97
2023-01-27T03:58:52.340Z,-0.97
2023-01-27T04:03:52.348Z,-0.96
2023-01-27T04:08:53.170Z,-0.96
2023-01-27T04:13:50.022Z,-0.95
2023-01-27T04:18:49.833Z,-0.93
2023-01-27T04:23:49.236Z,-0.92
2023-01-27T04:28:47.662Z,-0.92
2023-01-27T04:33:47.582Z,-0.92
2023-01-27T04:38:48.190Z,-0.91
2023-01-27T04:43:46.747Z,-0.9
2023-01-27T04:48:47.011Z,-0.91
2023-01-27T04:53:46.393Z,-0.91
2023-01-27T04:58:45.932Z,-0.9
2023-01-27T05:03:45.589Z,-0.89
2023-01-27T05:08:45.633Z,-0.88
2023-01-27T05:13:44.801Z,-0.88
2023-01-27T05:18:46.102Z,-0.89
2023-01-27T05:23:42.392Z,-0.9
2023-01-27T05:28:43.006Z,-0.9
2023-01-27T05:33:41.735Z,-0.9
2023-01-27T05:38:41.838Z,-0.91
2023-01-27T05:43:39.665Z,-0.91
2023-01-27T05:48:39.802Z,-0.9
2023-01-27T05:53:39.152Z,-0.91
2023-01-27T05:58:40.328Z,-0.9
2023-01-27T06:03:37.900Z,-0.9
2023-01-27T06:08:38.022Z,-0.9
2023-01-27T06:13:37.566Z,-0.88
2023-01-27T06:18:37.045Z,-0.87
2023-01-27T06:23:36.624Z,-0.85
2023-01-27T06:28:37.489Z,-0.84
2023-01-27T06:33:36.522Z,-0.83
2023-01-27T06:38:36.291Z,-0.83
2023-01-27T06:43:36.512Z,-0.82
2023-01-27T06:48:35.800Z,-0.82
2023-01-27T06:53:37.563Z,-0.81
2023-01-27T06:58:33.601Z,-0.8
2023-01-27T07:03:34.962Z,-0.78
2023-01-27T07:08:33.581Z,-0.78
2023-01-27T07:13:33.046Z,-0.76
2023-01-27T07:18:32.514Z,-0.74
2023-01-27T07:23:32.684Z,-0.73
2023-01-27T07:28:32.069Z,-0.71
2023-01-27T07:33:33.225Z,-0.7
2023-01-27T07:43:29.477Z,-0.63
2023-01-27T07:48:28.416Z,-0.6
2023-01-27T07:53:28.443Z,-0.56
2023-01-27T07:58:25.923Z,-0.52
2023-01-27T07:59:47.071Z,-0.52
2023-01-27T08:04:52.814Z,-0.48
2023-01-27T08:09:47.648Z,-0.48
2023-01-27T08:14:43.860Z,-0.4
2023-01-27T08:19:43.731Z,-0.36
2023-01-27T08:24:43.202Z,-0.3
2023-01-27T08:29:42.988Z,-0.27
2023-01-27T08:34:40.335Z,-0.23
2023-01-27T08:39:40.808Z,-0.22
2023-01-27T08:44:40.131Z,-0.16
2023-01-27T08:49:41.513Z,-0.11
2023-01-27T08:54:37.582Z,-0.04
2023-01-27T08:59:19.170Z,0.02
2023-01-27T09:04:19.603Z,0.13
2023-01-27T09:09:18.036Z,0.22
2023-01-27T09:14:18.729Z,0.33
2023-01-27T09:19:18.409Z,0.43
2023-01-27T09:24:20.175Z,0.48
2023-01-27T09:29:17.052Z,0.49
2023-01-27T09:34:16.761Z,0.55
2023-01-27T09:39:18.537Z,0.56
2023-01-27T09:44:04.890Z,0.58
2023-01-27T09:49:05.495Z,0.68
2023-01-27T09:54:06.589Z,0.83
2023-01-27T09:58:50.201Z,0.87
2023-01-27T10:00:22.176Z,0.88
2023-01-27T10:05:20.667Z,0.96
2023-01-27T10:10:21.333Z,0.95
2023-01-27T10:15:20.752Z,0.93
2023-01-27T10:20:22.459Z,0.86
2023-01-27T10:25:19.463Z,0.89
2023-01-27T10:30:19.316Z,0.86
2023-01-27T10:35:20.752Z,0.86
2023-01-27T10:40:17.958Z,0.86
2023-01-27T10:45:17.557Z,0.92
2023-01-27T10:50:18.032Z,0.96
2023-01-27T10:55:15.896Z,1.03
2023-01-27T10:59:36.192Z,1.02
2023-01-27T11:04:35.576Z,1.12
2023-01-27T11:09:35.016Z,1.13
2023-01-27T11:14:32.570Z,1.16
2023-01-27T11:19:32.393Z,1.19
2023-01-27T11:24:32.807Z,1.23
2023-01-27T11:29:32.357Z,1.26
2023-01-27T11:34:30.815Z,1.4
2023-01-27T11:39:31.214Z,1.41
2023-01-27T11:44:31.870Z,1.34
2023-01-27T11:49:30.747Z,1.39
2023-01-27T11:54:30.602Z,1.46
2023-01-27T11:58:38.673Z,1.45
2023-01-27T12:03:38.598Z,1.46
2023-01-27T12:08:39.654Z,1.42
2023-01-27T12:13:35.854Z,1.42
2023-01-27T12:18:35.871Z,1.42
2023-01-27T12:23:35.478Z,1.43
2023-01-27T12:28:34.989Z,1.36
2023-01-27T12:33:32.944Z,1.3
2023-01-27T12:38:32.310Z,1.27
2023-01-27T12:43:32.493Z,1.26
2023-01-27T12:48:32.100Z,1.26
2023-01-27T12:53:30.757Z,1.29
2023-01-27T12:58:16.207Z,1.36
2023-01-27T13:03:16.500Z,1.41
2023-01-27T13:08:16.790Z,1.49
2023-01-27T13:13:14.169Z,1.54
2023-01-27T13:18:13.862Z,1.55
2023-01-27T13:23:14.397Z,1.55
2023-01-27T13:28:12.965Z,1.54
2023-01-27T13:33:12.785Z,1.52
2023-01-27T13:38:13.234Z,1.51
2023-01-27T13:43:12.957Z,1.53
2023-01-27T13:48:12.447Z,1.55
2023-01-27T13:53:22.590Z,1.55
2023-01-27T13:58:21.976Z,1.58
2023-01-27T13:59:44.218Z,1.58
2023-01-27T14:04:41.760Z,1.56
2023-01-27T14:09:41.280Z,1.54
2023-01-27T14:14:52.592Z,1.53
2023-01-27T14:19:40.999Z,1.55
2023-01-27T14:24:40.367Z,1.56
2023-01-27T14:29:39.692Z,1.54
2023-01-27T14:34:39.458Z,1.51
2023-01-27T14:39:39.372Z,1.48
2023-01-27T14:44:43.750Z,1.45
2023-01-27T14:49:36.163Z,1.43
2023-01-27T14:54:36.397Z,1.42
2023-01-27T14:59:18.433Z,1.41
2023-01-27T15:04:17.072Z,1.41
2023-01-27T15:09:16.961Z,1.4
2023-01-27T15:14:05.205Z,1.36
2023-01-27T15:19:04.909Z,1.32
2023-01-27T15:24:05.095Z,1.3
2023-01-27T15:29:04.269Z,1.27
2023-01-27T15:34:05.316Z,1.27
2023-01-27T15:44:01.583Z,1.23
2023-01-27T15:49:00.512Z,1.17
2023-01-27T15:54:00.434Z,1.14
2023-01-27T15:58:45.741Z,1.05
2023-01-27T16:00:17.324Z,1.04
2023-01-27T16:05:16.942Z,0.96
2023-01-27T16:10:04.465Z,0.88
2023-01-27T16:15:04.361Z,0.88
2023-01-27T16:20:04.793Z,0.89
2023-01-27T16:25:04.168Z,0.9
2023-01-27T16:30:03.726Z,0.91
2023-01-27T16:35:02.913Z,0.93
2023-01-27T16:40:03.326Z,0.95
2023-01-27T16:45:02.407Z,0.99
2023-01-27T16:50:01.606Z,1.01
2023-01-27T16:55:00.949Z,1
2023-01-27T16:59:21.509Z,0.98
2023-01-27T17:04:20.973Z,1.01
2023-01-27T17:09:19.922Z,1.02
2023-01-27T17:14:30.247Z,1.03
2023-01-27T17:19:19.847Z,1.03
2023-01-27T17:24:19.478Z,1.04
2023-01-27T17:29:20.056Z,1.04
2023-01-27T17:34:17.158Z,1.07
2023-01-27T17:39:17.527Z,1.1
2023-01-27T17:44:16.935Z,1.12
2023-01-27T17:49:16.621Z,1.14
2023-01-27T17:54:15.897Z,1.16
2023-01-27T17:59:17.778Z,1.15
2023-01-27T18:04:17.718Z,1.17
2023-01-27T18:09:05.385Z,1.16
2023-01-27T18:14:10.341Z,1.16
2023-01-27T18:19:04.291Z,1.16
2023-01-27T18:24:04.131Z,1.15
2023-01-27T18:29:02.445Z,1.14
2023-01-27T18:34:02.824Z,1.14
2023-01-27T18:39:03.837Z,1.14
2023-01-27T18:43:59.850Z,1.15
2023-01-27T18:48:59.990Z,1.16
2023-01-27T18:53:59.001Z,1.16
2023-01-27T18:58:57.645Z,1.16
2023-01-27T19:03:57.362Z,1.17
2023-01-27T19:08:57.749Z,1.17
2023-01-27T19:13:56.993Z,1.17
2023-01-27T19:18:58.245Z,1.17
2023-01-27T19:23:54.517Z,1.17
2023-01-27T19:28:54.612Z,1.16
2023-01-27T19:33:54.796Z,1.17
2023-01-27T19:38:53.597Z,1.22
2023-01-27T19:43:51.441Z,1.24
2023-01-27T19:48:51.090Z,1.25
2023-01-27T19:53:50.110Z,1.28
2023-01-27T19:58:49.593Z,1.27
2023-01-27T20:03:48.821Z,1.28
2023-01-27T20:08:48.481Z,1.3
2023-01-27T20:13:48.460Z,1.27
2023-01-27T20:18:49.644Z,1.26
2023-01-27T20:23:48.514Z,1.25
2023-01-27T20:28:48.122Z,1.24
2023-01-27T20:33:47.682Z,1.21
2023-01-27T20:38:53.171Z,1.16
2023-01-27T20:43:44.629Z,1.16
2023-01-27T20:48:45.298Z,1.15
2023-01-27T20:53:43.714Z,1.14
2023-01-27T20:58:43.845Z,1.11
2023-01-27T21:03:43.066Z,1.05
2023-01-27T21:08:44.131Z,1.03
2023-01-27T21:13:40.203Z,0.98
2023-01-27T21:18:40.184Z,0.95
2023-01-27T21:23:39.363Z,0.92
2023-01-27T21:28:39.152Z,0.88
2023-01-27T21:33:36.345Z,0.84
2023-01-27T21:38:36.491Z,0.8
2023-01-27T21:43:36.378Z,0.77
2023-01-27T21:48:36.103Z,0.76
2023-01-27T21:53:35.013Z,0.77
2023-01-27T21:58:35.220Z,0.78
2023-01-27T22:03:35.794Z,0.77
2023-01-27T22:08:34.897Z,0.8
2023-01-27T22:13:34.686Z,0.89
2023-01-27T22:23:33.893Z,1
2023-01-27T22:28:34.941Z,1.04
2023-01-27T22:33:31.082Z,1.09
2023-01-27T22:38:30.933Z,1.12
2023-01-27T22:43:29.943Z,1.13
2023-01-27T22:48:29.744Z,1.19
2023-01-27T22:53:27.366Z,1.26
2023-01-27T22:58:22.937Z,1.34
2023-01-27T23:03:23.950Z,1.37
2023-01-27T23:08:22.881Z,1.43
2023-01-27T23:13:22.598Z,1.46
2023-01-27T23:18:22.278Z,1.48
2023-01-27T23:23:22.351Z,1.49
2023-01-27T23:28:21.618Z,1.51
2023-01-27T23:33:19.483Z,1.55
2023-01-27T23:38:31.608Z,1.57
2023-01-27T23:43:18.563Z,1.61
2023-01-27T23:48:19.752Z,1.61
2023-01-27T23:53:17.246Z,1.59
2023-01-27T23:58:17.595Z,1.6
2023-01-27T23:59:39.371Z,1.58
